Time;durP1;ratioP1;P1;durP2;ratioP2;P2;SDS_P1;SDS_P2;PMS_P1;PMS_P2;Temp;Humidity;BMP_temperature;BMP_pressure;BME280_temperature;BME280_humidity;BME280_pressure;Samples;Min_cycle;Max_cycle;Signal;HPM_P1;HPM_P2
2023/08/30 00:00:20;;;;;;;11.32;5.47;;;16.20;99.90;;;;;;5087785;28;20446;-71
2023/08/30 00:02:47;;;;;;;9.00;5.50;;;16.20;99.90;;;;;;5082442;28;20055;-71
2023/08/30 00:05:13;;;;;;;11.82;6.05;;;16.20;99.90;;;;;;5089587;28;20036;-71
2023/08/30 00:07:39;;;;;;;10.88;6.40;;;16.10;99.90;;;;;;5079532;28;20099;-71
2023/08/30 00:10:10;;;;;;;11.02;6.63;;;16.20;99.90;;;;;;5081979;28;20042;-71
2023/08/30 00:12:36;;;;;;;10.48;6.50;;;16.20;99.90;;;;;;5080828;28;20035;-71
2023/08/30 00:15:01;;;;;;;10.10;6.45;;;16.10;99.90;;;;;;5078030;28;20087;-71
2023/08/30 00:17:27;;;;;;;8.70;5.97;;;16.10;99.90;;;;;;5090281;28;20012;-71
2023/08/30 00:19:54;;;;;;;11.65;6.53;;;16.10;99.90;;;;;;5087934;28;20017;-71
2023/08/30 00:22:21;;;;;;;17.45;6.75;;;16.10;99.90;;;;;;5087053;28;20085;-71
2023/08/30 00:24:47;;;;;;;11.23;6.03;;;16.20;99.90;;;;;;5077438;28;20028;-71
2023/08/30 00:27:12;;;;;;;11.25;6.22;;;16.20;99.90;;;;;;5090512;28;20359;-71
2023/08/30 00:29:38;;;;;;;11.10;6.15;;;16.20;99.90;;;;;;5091129;28;20024;-71
2023/08/30 00:32:04;;;;;;;10.55;6.20;;;16.20;99.90;;;;;;5082671;28;20044;-71
2023/08/30 00:34:30;;;;;;;10.52;6.22;;;16.20;99.90;;;;;;5084343;28;20378;-71
2023/08/30 00:36:55;;;;;;;11.10;6.85;;;16.20;99.90;;;;;;5084305;28;20047;-71
2023/08/30 00:39:21;;;;;;;9.52;6.10;;;16.20;99.90;;;;;;5083628;28;20459;-71
2023/08/30 00:41:47;;;;;;;11.50;6.28;;;16.20;99.90;;;;;;5087049;28;20039;-71
2023/08/30 00:44:14;;;;;;;11.00;6.50;;;16.20;99.90;;;;;;5081384;28;20021;-71
2023/08/30 00:46:39;;;;;;;13.93;6.70;;;16.30;99.90;;;;;;5087894;28;20020;-71
2023/08/30 00:49:06;;;;;;;9.27;6.25;;;16.30;99.90;;;;;;5089877;28;20045;-71
2023/08/30 00:51:32;;;;;;;11.68;6.75;;;16.30;99.90;;;;;;5082944;28;20028;-71
2023/08/30 00:53:59;;;;;;;10.73;6.28;;;16.30;99.90;;;;;;5073500;28;20027;-71
2023/08/30 00:56:27;;;;;;;12.73;6.43;;;16.30;99.90;;;;;;5086558;28;20058;-71
2023/08/30 00:58:53;;;;;;;11.90;6.63;;;16.30;99.90;;;;;;5079763;28;20048;-71
2023/08/30 01:01:19;;;;;;;11.63;6.18;;;16.40;99.90;;;;;;5078213;28;20043;-71
2023/08/30 01:03:45;;;;;;;11.27;6.80;;;16.40;99.90;;;;;;5086735;28;20101;-71
2023/08/30 01:06:11;;;;;;;10.80;6.50;;;16.40;99.90;;;;;;5075970;28;20099;-71
2023/08/30 01:08:37;;;;;;;11.57;6.97;;;16.40;99.90;;;;;;5086892;28;20016;-71
2023/08/30 01:11:27;;;;;;;12.35;6.88;;;16.30;99.90;;;;;;5086240;28;20100;-71
2023/08/30 01:13:58;;;;;;;13.10;6.70;;;16.30;99.90;;;;;;5073101;28;20503;-71
2023/08/30 01:16:25;;;;;;;16.50;7.57;;;16.30;99.90;;;;;;5090050;28;20012;-71
2023/08/30 01:18:56;;;;;;;12.15;6.90;;;16.30;99.90;;;;;;5087552;28;20075;-71
2023/08/30 01:22:08;;;;;;;15.05;7.22;;;16.30;99.90;;;;;;5088737;28;20119;-71
2023/08/30 01:25:06;;;;;;;11.30;6.60;;;16.30;99.90;;;;;;5085460;28;20035;-71
2023/08/30 01:27:36;;;;;;;16.63;7.82;;;16.20;99.90;;;;;;5083988;28;20073;-71
2023/08/30 01:30:04;;;;;;;13.13;7.93;;;16.20;99.90;;;;;;5090045;28;20020;-71
2023/08/30 01:32:30;;;;;;;16.13;8.13;;;16.20;99.90;;;;;;5078743;28;20017;-71
2023/08/30 01:34:57;;;;;;;15.18;7.88;;;16.30;99.90;;;;;;5084258;28;20024;-71
2023/08/30 01:37:25;;;;;;;14.02;7.47;;;16.30;99.90;;;;;;5084020;28;20023;-71
2023/08/30 01:39:52;;;;;;;14.15;7.75;;;16.30;99.90;;;;;;5088902;28;20055;-71
2023/08/30 01:42:22;;;;;;;15.45;7.90;;;16.30;99.90;;;;;;5087278;28;20047;-71
2023/08/30 01:44:49;;;;;;;16.42;8.48;;;16.30;99.90;;;;;;5089823;28;20091;-72
2023/08/30 01:47:16;;;;;;;16.80;8.35;;;16.30;99.90;;;;;;5082471;28;20364;-71
2023/08/30 01:49:43;;;;;;;13.98;7.72;;;16.30;99.90;;;;;;5089443;28;20022;-71
2023/08/30 01:52:10;;;;;;;19.00;8.82;;;16.30;99.90;;;;;;5089319;28;20024;-71
2023/08/30 01:54:37;;;;;;;15.57;8.32;;;16.30;99.90;;;;;;5086611;28;20028;-71
2023/08/30 01:57:03;;;;;;;14.52;8.18;;;16.40;99.90;;;;;;5082117;28;20100;-71
2023/08/30 01:59:29;;;;;;;14.75;8.73;;;16.40;99.90;;;;;;5077065;28;20174;-71
2023/08/30 02:01:56;;;;;;;14.73;8.43;;;16.40;99.90;;;;;;5084734;28;20461;-71
2023/08/30 02:04:22;;;;;;;15.10;8.70;;;16.40;99.90;;;;;;5080880;28;20041;-71
2023/08/30 02:07:00;;;;;;;14.57;7.40;;;16.40;99.90;;;;;;5086802;28;20021;-71
2023/08/30 02:09:31;;;;;;;19.10;8.23;;;16.30;99.90;;;;;;5086453;28;20353;-71
2023/08/30 02:12:02;;;;;;;16.05;7.45;;;16.40;99.90;;;;;;5075843;28;20025;-71
2023/08/30 02:14:29;;;;;;;14.82;7.55;;;16.40;99.90;;;;;;5088412;28;20391;-71
2023/08/30 02:16:55;;;;;;;15.25;8.20;;;16.40;99.90;;;;;;5074103;28;20168;-71
2023/08/30 02:19:21;;;;;;;15.63;7.65;;;16.40;99.90;;;;;;5077501;28;20047;-71
2023/08/30 02:21:48;;;;;;;16.70;8.00;;;16.40;99.90;;;;;;5084799;28;20433;-71
2023/08/30 02:24:14;;;;;;;16.00;7.32;;;16.40;99.90;;;;;;5077142;28;20031;-71
2023/08/30 02:26:39;;;;;;;13.05;7.28;;;16.50;99.90;;;;;;5080553;28;20387;-71
2023/08/30 02:29:05;;;;;;;15.13;7.10;;;16.40;99.90;;;;;;5079394;28;20058;-71
2023/08/30 02:31:31;;;;;;;11.68;6.55;;;16.40;99.90;;;;;;5085753;28;20086;-71
2023/08/30 02:33:56;;;;;;;13.90;7.65;;;16.40;99.90;;;;;;5092099;28;20059;-71
2023/08/30 02:36:22;;;;;;;14.73;7.78;;;16.50;99.90;;;;;;5092218;28;20087;-71
2023/08/30 02:38:47;;;;;;;14.07;7.82;;;16.40;99.90;;;;;;5092426;28;20098;-71
2023/08/30 02:41:13;;;;;;;12.15;7.60;;;16.40;99.90;;;;;;5077930;28;20383;-71
2023/08/30 02:43:39;;;;;;;13.55;7.47;;;16.40;99.90;;;;;;5080228;28;20036;-71
2023/08/30 02:46:05;;;;;;;13.20;7.78;;;16.30;99.90;;;;;;5082275;28;20096;-71
2023/08/30 02:48:34;;;;;;;13.20;8.05;;;16.30;99.90;;;;;;5077634;28;20028;-71
2023/08/30 02:51:00;;;;;;;13.93;8.02;;;16.20;99.90;;;;;;5082070;28;20036;-71
2023/08/30 02:53:25;;;;;;;13.43;8.38;;;16.20;99.90;;;;;;5093098;28;20051;-71
2023/08/30 02:55:51;;;;;;;15.48;9.13;;;16.10;99.90;;;;;;5088776;28;20020;-71
2023/08/30 02:58:16;;;;;;;13.68;8.88;;;16.00;99.90;;;;;;5078907;28;20430;-71
2023/08/30 03:00:42;;;;;;;14.63;9.20;;;15.90;99.90;;;;;;5077453;28;20450;-71
2023/08/30 03:03:08;;;;;;;14.63;9.27;;;15.90;99.90;;;;;;5088875;28;20028;-71
2023/08/30 03:05:34;;;;;;;19.35;9.30;;;15.80;99.90;;;;;;5080089;28;20024;-71
2023/08/30 03:07:59;;;;;;;16.67;8.90;;;15.80;99.90;;;;;;5086944;28;20484;-71
2023/08/30 03:10:25;;;;;;;17.42;9.15;;;15.80;99.90;;;;;;5089734;28;20032;-71
2023/08/30 03:12:51;;;;;;;18.63;9.55;;;15.70;99.90;;;;;;5083023;28;20025;-71
2023/08/30 03:15:17;;;;;;;16.73;9.07;;;15.70;99.90;;;;;;5088965;28;20016;-71
2023/08/30 03:17:42;;;;;;;13.93;8.95;;;15.70;99.90;;;;;;5079047;28;20021;-71
2023/08/30 03:20:08;;;;;;;16.48;10.02;;;15.60;99.90;;;;;;5082248;28;20062;-71
2023/08/30 03:22:34;;;;;;;15.02;9.88;;;15.60;99.90;;;;;;5078321;28;20032;-71
2023/08/30 03:25:02;;;;;;;15.32;9.48;;;15.60;99.90;;;;;;5084578;28;20016;-71
2023/08/30 03:27:28;;;;;;;17.73;10.25;;;15.60;99.90;;;;;;5084250;28;20443;-72
2023/08/30 03:29:55;;;;;;;17.00;9.82;;;15.60;99.90;;;;;;5080505;28;20055;-71
2023/08/30 03:32:21;;;;;;;19.08;10.10;;;15.50;99.90;;;;;;5079869;28;20070;-71
2023/08/30 03:34:48;;;;;;;17.35;10.40;;;15.50;99.90;;;;;;5087238;28;20036;-71
2023/08/30 03:37:17;;;;;;;19.23;10.70;;;15.50;99.90;;;;;;5077037;28;20686;-71
2023/08/30 03:39:42;;;;;;;18.48;10.80;;;15.50;99.90;;;;;;5092480;28;20099;-71
2023/08/30 03:42:08;;;;;;;16.60;10.43;;;15.40;99.90;;;;;;5088619;28;20143;-71
2023/08/30 03:44:34;;;;;;;18.48;10.88;;;15.40;99.90;;;;;;5091824;28;20091;-71
2023/08/30 03:47:00;;;;;;;17.88;10.50;;;15.40;99.90;;;;;;5091778;28;20069;-71
2023/08/30 03:49:26;;;;;;;17.25;10.60;;;15.30;99.90;;;;;;5090691;28;20024;-71
2023/08/30 03:51:51;;;;;;;20.48;10.93;;;15.30;99.90;;;;;;5091522;28;20020;-71
2023/08/30 03:54:17;;;;;;;17.15;10.57;;;15.30;99.90;;;;;;5079132;28;20091;-71
2023/08/30 03:56:43;;;;;;;14.95;10.10;;;15.20;99.90;;;;;;5092153;28;20114;-71
2023/08/30 03:59:09;;;;;;;18.30;10.90;;;15.20;99.90;;;;;;5090311;28;20032;-71
2023/08/30 04:01:35;;;;;;;18.30;10.98;;;15.20;99.90;;;;;;5090847;28;20046;-71
2023/08/30 04:04:01;;;;;;;16.15;11.10;;;15.10;99.90;;;;;;5075780;28;20029;-71
2023/08/30 04:06:27;;;;;;;18.65;10.68;;;15.10;99.90;;;;;;5081433;28;20016;-71
2023/08/30 04:08:52;;;;;;;19.00;11.07;;;15.10;99.90;;;;;;5091116;28;20354;-71
2023/08/30 04:11:18;;;;;;;19.95;11.45;;;15.10;99.90;;;;;;5086587;28;20051;-71
2023/08/30 04:13:43;;;;;;;19.17;11.85;;;15.10;99.90;;;;;;5085333;28;20107;-71
2023/08/30 04:16:09;;;;;;;19.92;11.63;;;15.00;99.90;;;;;;5091556;28;20040;-71
2023/08/30 04:18:35;;;;;;;18.95;11.43;;;15.00;99.90;;;;;;5074890;28;20469;-71
2023/08/30 04:21:02;;;;;;;18.25;11.55;;;15.00;99.90;;;;;;5074269;28;20039;-71
2023/08/30 04:23:28;;;;;;;18.08;11.35;;;15.00;99.90;;;;;;5085858;28;20080;-71
2023/08/30 04:25:54;;;;;;;20.35;12.07;;;15.00;99.90;;;;;;5076874;28;20028;-71
2023/08/30 04:28:20;;;;;;;18.58;11.73;;;15.00;99.90;;;;;;5077038;28;20020;-71
2023/08/30 04:30:46;;;;;;;20.10;12.00;;;15.00;99.90;;;;;;5071719;28;20058;-71
2023/08/30 04:33:12;;;;;;;17.52;11.32;;;15.00;99.90;;;;;;5080289;28;20021;-70
2023/08/30 04:35:38;;;;;;;22.92;12.35;;;15.00;99.90;;;;;;5089246;28;20016;-71
2023/08/30 04:38:05;;;;;;;19.90;11.73;;;15.00;99.90;;;;;;5090895;28;20020;-71
2023/08/30 04:40:32;;;;;;;20.60;11.95;;;15.00;99.90;;;;;;5075069;28;20036;-71
2023/08/30 04:42:58;;;;;;;20.30;11.23;;;15.00;99.90;;;;;;5079386;28;20084;-71
2023/08/30 04:45:24;;;;;;;20.95;11.55;;;15.10;99.90;;;;;;5090160;28;20085;-71
2023/08/30 04:47:50;;;;;;;21.30;12.05;;;15.10;99.90;;;;;;5077453;28;20016;-71
2023/08/30 04:50:16;;;;;;;22.60;12.90;;;15.10;99.90;;;;;;5088680;28;20028;-71
2023/08/30 04:52:42;;;;;;;21.40;12.13;;;15.10;99.90;;;;;;5088443;28;20542;-71
2023/08/30 04:55:08;;;;;;;19.67;11.75;;;15.10;99.90;;;;;;5081651;28;20046;-71
2023/08/30 04:57:34;;;;;;;19.92;13.15;;;15.10;99.90;;;;;;5089407;28;20016;-71
2023/08/30 05:00:04;;;;;;;23.17;12.63;;;15.10;99.90;;;;;;5077898;28;20027;-71
2023/08/30 05:02:29;;;;;;;22.75;12.90;;;15.10;99.90;;;;;;5081061;28;20040;-71
2023/08/30 05:04:55;;;;;;;20.98;12.20;;;15.10;99.90;;;;;;5079261;28;20280;-71
2023/08/30 05:07:21;;;;;;;22.98;12.57;;;15.10;99.90;;;;;;5082441;28;20068;-72
2023/08/30 05:09:46;;;;;;;26.85;13.65;;;15.10;99.90;;;;;;5087470;28;20081;-71
2023/08/30 05:12:12;;;;;;;24.92;13.88;;;15.00;99.90;;;;;;5088538;28;20066;-71
2023/08/30 05:14:38;;;;;;;23.88;14.15;;;15.00;99.90;;;;;;5079079;28;20024;-71
2023/08/30 05:17:04;;;;;;;23.80;14.45;;;15.00;99.90;;;;;;5086425;28;20044;-71
2023/08/30 05:19:29;;;;;;;24.02;14.32;;;15.00;99.90;;;;;;5085537;28;20016;-71
2023/08/30 05:21:55;;;;;;;27.02;15.05;;;15.00;99.90;;;;;;5082037;28;20111;-71
2023/08/30 05:24:26;;;;;;;25.83;14.25;;;14.90;99.90;;;;;;5089478;28;20031;-71
2023/08/30 05:26:52;;;;;;;25.13;14.77;;;14.90;99.90;;;;;;5078609;28;20043;-71
2023/08/30 05:29:18;;;;;;;26.27;14.60;;;14.90;99.90;;;;;;5073187;28;20020;-71
2023/08/30 05:31:43;;;;;;;25.85;14.85;;;14.90;99.90;;;;;;5088889;28;20502;-70
2023/08/30 05:34:10;;;;;;;28.90;14.70;;;14.80;99.90;;;;;;5087343;28;20070;-70
2023/08/30 05:36:36;;;;;;;25.20;14.32;;;14.80;99.90;;;;;;5086503;28;20074;-72
2023/08/30 05:39:03;;;;;;;25.08;15.40;;;14.80;99.90;;;;;;5075847;28;20056;-70
2023/08/30 05:41:29;;;;;;;26.85;14.77;;;14.70;99.90;;;;;;5072287;28;20021;-70
2023/08/30 05:43:54;;;;;;;22.90;14.60;;;14.70;99.90;;;;;;5088941;28;20020;-74
2023/08/30 05:46:20;;;;;;;22.73;14.68;;;14.70;99.90;;;;;;5080721;28;20028;-70
2023/08/30 05:48:45;;;;;;;24.17;15.13;;;14.70;99.90;;;;;;5088424;28;20024;-70
2023/08/30 05:51:11;;;;;;;23.70;14.95;;;14.70;99.90;;;;;;5078278;28;20024;-70
2023/08/30 05:53:37;;;;;;;24.60;16.05;;;14.70;99.90;;;;;;5073706;28;20062;-70
2023/08/30 05:56:03;;;;;;;27.17;17.10;;;14.70;99.90;;;;;;5089357;28;20016;-70
2023/08/30 05:58:29;;;;;;;28.92;17.67;;;14.70;99.90;;;;;;5078626;28;20100;-70
2023/08/30 06:00:56;;;;;;;29.00;17.40;;;14.80;99.90;;;;;;5077718;28;20137;-70
2023/08/30 06:03:21;;;;;;;30.30;17.08;;;14.80;99.90;;;;;;5089967;28;20724;-70
2023/08/30 06:05:48;;;;;;;27.20;17.25;;;14.80;99.90;;;;;;5076546;28;20028;-70
2023/08/30 06:08:14;;;;;;;29.45;17.98;;;14.80;99.90;;;;;;5076977;28;20029;-70
2023/08/30 06:10:40;;;;;;;29.92;17.23;;;14.80;99.90;;;;;;5079232;28;20024;-70
2023/08/30 06:13:05;;;;;;;27.20;17.30;;;14.80;99.90;;;;;;5088079;28;20555;-70
2023/08/30 06:15:31;;;;;;;28.27;17.30;;;14.80;99.90;;;;;;5082035;28;20028;-70
2023/08/30 06:17:58;;;;;;;28.50;15.93;;;14.80;99.90;;;;;;5088128;28;20415;-70
2023/08/30 06:20:24;;;;;;;24.55;15.77;;;14.80;99.90;;;;;;5086871;28;20036;-70
2023/08/30 06:22:49;;;;;;;24.90;15.00;;;14.80;99.90;;;;;;5079507;28;20028;-70
2023/08/30 06:25:15;;;;;;;24.23;14.07;;;14.90;99.90;;;;;;5079507;28;20094;-70
2023/08/30 06:27:45;;;;;;;22.25;13.68;;;14.90;99.90;;;;;;5091665;28;20252;-71
2023/08/30 06:30:11;;;;;;;21.13;13.80;;;14.90;99.90;;;;;;5082725;28;20017;-70
2023/08/30 06:32:37;;;;;;;18.35;12.18;;;14.90;99.90;;;;;;5085091;28;20020;-70
2023/08/30 06:35:03;;;;;;;20.50;12.85;;;14.90;99.90;;;;;;5084199;28;20012;-70
2023/08/30 06:37:29;;;;;;;18.48;12.13;;;14.90;99.90;;;;;;5079241;28;20051;-71
2023/08/30 06:39:55;;;;;;;17.60;11.98;;;14.90;99.90;;;;;;5081116;28;20483;-71
2023/08/30 06:42:20;;;;;;;18.33;12.40;;;14.90;99.90;;;;;;5081537;28;20070;-70
2023/08/30 06:44:46;;;;;;;16.02;10.77;;;14.90;99.90;;;;;;5080387;28;20028;-70
2023/08/30 06:47:12;;;;;;;16.90;10.57;;;14.90;99.90;;;;;;5083205;28;20074;-70
2023/08/30 06:49:37;;;;;;;16.27;10.20;;;14.90;99.90;;;;;;5093323;28;20028;-70
2023/08/30 06:52:04;;;;;;;14.68;9.77;;;14.90;99.90;;;;;;5091048;28;20039;-70
2023/08/30 06:54:34;;;;;;;15.85;9.15;;;14.90;99.90;;;;;;5083768;28;20111;-70
2023/08/30 06:57:00;;;;;;;12.43;8.52;;;15.00;99.90;;;;;;5085566;28;20027;-70
2023/08/30 06:59:27;;;;;;;12.98;7.90;;;15.00;99.90;;;;;;5074552;28;20464;-70
2023/08/30 07:01:53;;;;;;;9.60;7.35;;;15.00;99.90;;;;;;5086315;28;20082;-70
2023/08/30 07:04:18;;;;;;;9.60;7.55;;;14.90;99.90;;;;;;5091197;28;20335;-70
2023/08/30 07:06:44;;;;;;;9.32;7.38;;;15.00;99.90;;;;;;5086498;28;20032;-70
2023/08/30 07:09:11;;;;;;;9.82;7.70;;;15.00;99.90;;;;;;5089060;28;20475;-70
2023/08/30 07:11:37;;;;;;;11.20;7.15;;;15.00;99.90;;;;;;5092265;28;20166;-70
2023/08/30 07:14:04;;;;;;;11.20;8.00;;;15.00;99.90;;;;;;5088914;28;20471;-70
2023/08/30 07:16:31;;;;;;;11.82;7.82;;;15.10;99.90;;;;;;5087050;28;20589;-70
2023/08/30 07:18:57;;;;;;;12.00;8.30;;;15.10;99.90;;;;;;5085800;28;20017;-70
2023/08/30 07:21:23;;;;;;;10.75;8.23;;;15.10;99.90;;;;;;5084871;28;20547;-70
2023/08/30 07:23:49;;;;;;;9.73;7.72;;;15.20;99.90;;;;;;5091419;28;20111;-70
2023/08/30 07:26:14;;;;;;;10.77;7.57;;;15.30;99.90;;;;;;5087618;28;20020;-70
2023/08/30 07:28:40;;;;;;;11.27;7.22;;;15.30;99.90;;;;;;5085568;28;20025;-70
2023/08/30 07:31:05;;;;;;;9.48;6.95;;;15.30;99.90;;;;;;5089547;28;20028;-70
2023/08/30 07:33:31;;;;;;;8.80;6.90;;;15.40;99.90;;;;;;5090228;28;20060;-70
2023/08/30 07:35:58;;;;;;;9.77;7.45;;;15.30;99.90;;;;;;5077760;28;20021;-70
2023/08/30 07:38:24;;;;;;;9.73;6.68;;;15.30;99.90;;;;;;5091236;28;20020;-70
2023/08/30 07:40:49;;;;;;;8.85;7.35;;;15.20;99.90;;;;;;5091882;28;20471;-70
2023/08/30 07:43:15;;;;;;;9.05;7.43;;;15.20;99.90;;;;;;5078657;28;20082;-70
2023/08/30 07:45:40;;;;;;;9.35;7.45;;;15.20;99.90;;;;;;5074562;28;20384;-70
2023/08/30 07:48:06;;;;;;;10.82;7.97;;;15.20;99.90;;;;;;5084705;28;20020;-70
2023/08/30 07:50:32;;;;;;;10.07;7.95;;;15.20;99.90;;;;;;5090510;28;20032;-70
2023/08/30 07:52:57;;;;;;;11.45;8.70;;;15.20;99.90;;;;;;5084629;28;20471;-70
2023/08/30 07:55:23;;;;;;;11.90;9.48;;;15.20;99.90;;;;;;5074799;28;20024;-70
2023/08/30 07:57:49;;;;;;;13.70;8.65;;;15.20;99.90;;;;;;5076124;28;20024;-70
2023/08/30 08:00:14;;;;;;;13.63;10.45;;;15.30;99.90;;;;;;5072634;28;20503;-70
2023/08/30 08:02:40;;;;;;;13.88;10.43;;;15.30;99.90;;;;;;5083827;28;20044;-70
2023/08/30 08:05:06;;;;;;;13.52;10.30;;;15.30;99.90;;;;;;5089581;28;20034;-70
2023/08/30 08:07:32;;;;;;;15.23;11.77;;;15.30;99.90;;;;;;5091596;28;20034;-70
2023/08/30 08:09:58;;;;;;;13.35;11.13;;;15.40;99.90;;;;;;5090044;28;20475;-70
2023/08/30 08:12:24;;;;;;;14.73;12.32;;;15.40;99.90;;;;;;5080302;28;20100;-70
2023/08/30 08:14:49;;;;;;;17.20;13.55;;;15.50;99.90;;;;;;5088470;28;20028;-70
2023/08/30 08:17:15;;;;;;;17.33;13.82;;;15.50;99.90;;;;;;5089815;28;20032;-70
2023/08/30 08:19:42;;;;;;;16.13;14.05;;;15.60;99.90;;;;;;5079693;28;20506;-70
2023/08/30 08:22:08;;;;;;;18.85;15.07;;;15.60;99.90;;;;;;5086526;28;20027;-70
2023/08/30 08:24:34;;;;;;;17.27;14.57;;;15.60;99.90;;;;;;5091251;28;20062;-70
2023/08/30 08:27:01;;;;;;;17.05;13.60;;;15.70;99.90;;;;;;5084363;28;20388;-70
2023/08/30 08:29:28;;;;;;;15.88;13.80;;;15.70;99.90;;;;;;5084729;28;20054;-70
2023/08/30 08:31:54;;;;;;;15.07;13.48;;;15.70;99.90;;;;;;5088057;28;20301;-70
2023/08/30 08:34:19;;;;;;;14.55;13.02;;;15.80;99.90;;;;;;5089648;28;20047;-70
2023/08/30 08:36:45;;;;;;;15.77;13.57;;;15.90;99.90;;;;;;5090966;28;20028;-70
2023/08/30 08:39:11;;;;;;;14.95;12.50;;;16.00;99.90;;;;;;5090800;28;20020;-70
2023/08/30 08:41:43;;;;;;;17.17;12.52;;;16.10;99.90;;;;;;5081386;28;20475;-70
2023/08/30 08:44:09;;;;;;;14.60;11.35;;;16.30;99.90;;;;;;5086659;28;20025;-70
2023/08/30 08:46:40;;;;;;;15.10;9.95;;;16.50;99.90;;;;;;5073477;28;20056;-70
2023/08/30 08:49:15;;;;;;;8.43;6.53;;;16.70;99.90;;;;;;5089337;28;20105;-70
2023/08/30 08:51:42;;;;;;;7.68;5.55;;;16.90;99.90;;;;;;5080297;28;20389;-70
2023/08/30 08:54:09;;;;;;;11.30;5.13;;;16.90;99.90;;;;;;5085597;28;20031;-70
2023/08/30 08:56:35;;;;;;;10.70;4.53;;;17.00;99.90;;;;;;5082075;28;20024;-70
2023/08/30 08:59:01;;;;;;;7.85;3.38;;;17.20;99.90;;;;;;5088804;28;20044;-70
2023/08/30 09:01:28;;;;;;;9.40;3.70;;;17.30;99.90;;;;;;5089986;28;20048;-70
2023/08/30 09:03:54;;;;;;;9.52;3.17;;;17.40;99.90;;;;;;5082783;28;20031;-70
2023/08/30 09:06:22;;;;;;;7.72;3.30;;;17.40;99.90;;;;;;5090808;28;20012;-70
2023/08/30 09:08:47;;;;;;;8.60;3.45;;;17.50;99.90;;;;;;5080819;28;20016;-71
2023/08/30 09:11:13;;;;;;;7.85;3.17;;;17.40;99.90;;;;;;5090665;28;20144;-70
2023/08/30 09:13:39;;;;;;;10.80;3.83;;;17.50;99.90;;;;;;5086569;28;20019;-71
2023/08/30 09:16:14;;;;;;;10.48;3.60;;;17.40;99.90;;;;;;5078723;28;20510;-71
2023/08/30 09:18:41;;;;;;;13.30;3.47;;;17.50;99.90;;;;;;5087094;28;20028;-70
2023/08/30 09:21:11;;;;;;;9.63;3.33;;;17.70;99.90;;;;;;5089636;28;20063;-70
2023/08/30 09:23:37;;;;;;;9.43;3.55;;;17.90;99.90;;;;;;5090275;28;20095;-70
2023/08/30 09:26:04;;;;;;;9.32;3.00;;;18.10;99.90;;;;;;5089983;28;20457;-71
2023/08/30 09:28:31;;;;;;;14.40;2.95;;;18.20;99.90;;;;;;5090147;28;20016;-71
2023/08/30 09:31:01;;;;;;;9.65;3.03;;;18.40;99.90;;;;;;5089835;28;20359;-71
2023/08/30 09:33:33;;;;;;;11.00;3.15;;;18.40;99.90;;;;;;5084968;28;20040;-71
2023/08/30 09:36:00;;;;;;;12.82;2.75;;;18.50;99.90;;;;;;5085456;28;20363;-71
2023/08/30 09:38:26;;;;;;;8.40;2.67;;;18.50;99.90;;;;;;5089442;28;20028;-71
2023/08/30 09:41:02;;;;;;;10.00;2.72;;;18.60;99.90;;;;;;5089585;28;20228;-71
2023/08/30 09:43:27;;;;;;;8.88;2.58;;;18.70;99.90;;;;;;5076233;28;20103;-70
2023/08/30 09:45:53;;;;;;;11.05;2.72;;;18.80;99.90;;;;;;5084859;28;20108;-70
2023/08/30 09:48:22;;;;;;;9.20;2.90;;;19.00;99.90;;;;;;5087262;28;20062;-70
2023/08/30 09:50:54;;;;;;;11.68;3.05;;;19.10;99.90;;;;;;5088665;28;20509;-70
2023/08/30 09:53:24;;;;;;;8.30;2.83;;;19.10;99.90;;;;;;5079523;28;20019;-70
2023/08/30 09:55:52;;;;;;;10.57;2.80;;;19.00;99.90;;;;;;5086247;28;20031;-70
2023/08/30 09:58:19;;;;;;;8.30;2.70;;;18.90;99.90;;;;;;5087025;28;20139;-70
2023/08/30 10:00:44;;;;;;;11.98;3.10;;;18.90;99.90;;;;;;5079292;28;20028;-70
2023/08/30 10:03:10;;;;;;;10.40;2.45;;;18.80;99.90;;;;;;5072833;28;20495;-71
2023/08/30 10:05:36;;;;;;;9.38;2.35;;;18.60;99.90;;;;;;5085735;28;20021;-70
2023/08/30 10:08:04;;;;;;;11.15;2.97;;;18.40;99.90;;;;;;5084668;28;20009;-71
2023/08/30 10:10:31;;;;;;;12.93;3.20;;;18.30;99.90;;;;;;5087235;28;20028;-71
2023/08/30 10:12:57;;;;;;;10.65;3.05;;;18.20;99.90;;;;;;5070915;28;20051;-74
2023/08/30 10:15:26;;;;;;;11.82;2.92;;;18.00;99.90;;;;;;5069303;28;20363;-71
2023/08/30 10:17:54;;;;;;;9.00;2.85;;;18.00;99.90;;;;;;5079219;28;20092;-71
2023/08/30 10:20:20;;;;;;;14.43;3.10;;;18.00;99.90;;;;;;5078670;28;20053;-71
2023/08/30 10:22:49;;;;;;;15.05;2.80;;;18.00;99.90;;;;;;5088569;28;20482;-71
2023/08/30 10:25:20;;;;;;;11.30;2.40;;;17.90;99.90;;;;;;5077755;28;20021;-71
2023/08/30 10:27:48;;;;;;;13.93;2.95;;;17.90;99.90;;;;;;5087835;28;20028;-71
2023/08/30 10:30:15;;;;;;;12.30;2.88;;;17.80;99.90;;;;;;5089369;28;20024;-70
2023/08/30 10:32:42;;;;;;;12.00;2.65;;;17.90;99.90;;;;;;5088905;28;20051;-71
2023/08/30 10:35:15;;;;;;;13.57;2.50;;;17.90;99.90;;;;;;5083856;28;20035;-71
2023/08/30 10:37:41;;;;;;;10.55;2.22;;;18.00;99.90;;;;;;5078793;28;20483;-72
2023/08/30 10:40:07;;;;;;;11.38;2.25;;;18.10;99.90;;;;;;5076287;28;20044;-71
2023/08/30 10:42:34;;;;;;;8.45;2.60;;;18.10;99.90;;;;;;5078540;28;20103;-71
2023/08/30 10:45:05;;;;;;;9.40;2.55;;;18.20;99.90;;;;;;5089191;28;20024;-71
2023/08/30 10:47:35;;;;;;;12.18;2.20;;;18.20;99.90;;;;;;5081483;28;20389;-71
2023/08/30 10:50:07;;;;;;;9.48;2.30;;;18.30;99.90;;;;;;5092130;28;20438;-71
2023/08/30 10:52:33;;;;;;;12.82;2.28;;;18.60;99.90;;;;;;5088034;28;20497;-71
2023/08/30 10:55:12;;;;;;;10.73;1.77;;;18.60;99.90;;;;;;5077410;28;20017;-71
2023/08/30 10:57:41;;;;;;;10.30;2.40;;;18.80;99.90;;;;;;5085601;28;20031;-71
2023/08/30 11:00:09;;;;;;;7.10;2.10;;;18.90;99.90;;;;;;5078155;28;20063;-71
2023/08/30 11:02:38;;;;;;;9.60;2.30;;;18.90;99.90;;;;;;5084905;28;20031;-71
2023/08/30 11:05:06;;;;;;;11.93;2.13;;;18.90;99.90;;;;;;5080641;28;20059;-71
2023/08/30 11:07:32;;;;;;;13.10;2.22;;;18.80;99.90;;;;;;5086825;28;20021;-71
2023/08/30 11:09:58;;;;;;;13.68;3.05;;;18.80;99.90;;;;;;5086467;28;20047;-71
2023/08/30 11:12:29;;;;;;;10.35;2.38;;;18.90;99.90;;;;;;5091499;28;20064;-71
2023/08/30 11:14:55;;;;;;;11.07;2.35;;;19.00;99.90;;;;;;5077539;28;20024;-71
2023/08/30 11:17:22;;;;;;;19.10;2.95;;;19.00;99.90;;;;;;5079763;28;20009;-71
2023/08/30 11:19:57;;;;;;;9.27;2.58;;;18.90;99.90;;;;;;5084182;28;20350;-71
2023/08/30 11:22:23;;;;;;;;;;;18.80;99.90;;;;;;5081727;28;20025;-71
2023/08/30 11:24:51;;;;;;;16.38;2.70;;;18.80;99.90;;;;;;5086140;28;19969;-71
2023/08/30 11:27:17;;;;;;;10.38;2.80;;;18.90;99.90;;;;;;5083303;28;20026;-71
2023/08/30 11:29:43;;;;;;;12.35;2.60;;;19.10;99.90;;;;;;5078686;28;20475;-71
2023/08/30 11:32:09;;;;;;;10.32;2.33;;;19.40;99.90;;;;;;5078193;28;20114;-71
2023/08/30 11:34:34;;;;;;;9.65;2.58;;;19.70;99.90;;;;;;5082396;28;20429;-71
2023/08/30 11:37:00;;;;;;;11.98;2.45;;;19.90;99.90;;;;;;5091593;28;20460;-71
2023/08/30 11:39:28;;;;;;;9.57;2.20;;;20.00;99.90;;;;;;5087692;28;20032;-71
2023/08/30 11:41:54;;;;;;;9.55;2.38;;;20.20;99.90;;;;;;5080275;28;20078;-71
2023/08/30 11:44:23;;;;;;;10.70;2.30;;;20.40;99.90;;;;;;5085457;28;20024;-71
2023/08/30 11:46:49;;;;;;;9.43;2.33;;;20.60;99.90;;;;;;5086687;28;20024;-71
2023/08/30 11:49:16;;;;;;;13.80;2.60;;;20.70;99.90;;;;;;5089259;28;20483;-71
2023/08/30 11:51:42;;;;;;;13.27;2.40;;;20.80;99.90;;;;;;5082175;28;20446;-71
2023/08/30 11:54:08;;;;;;;9.55;2.28;;;20.80;99.90;;;;;;5080302;28;20417;-71
2023/08/30 11:56:35;;;;;;;8.77;2.13;;;20.90;99.90;;;;;;5082596;28;20085;-71
2023/08/30 11:59:02;;;;;;;8.77;1.92;;;20.90;99.90;;;;;;5075468;28;20035;-72
2023/08/30 12:01:28;;;;;;;9.45;2.00;;;20.80;99.90;;;;;;5085060;28;20056;-72
2023/08/30 12:03:54;;;;;;;8.30;2.03;;;20.60;99.90;;;;;;5079905;28;20392;-72
2023/08/30 12:06:23;;;;;;;7.32;1.92;;;20.40;99.90;;;;;;5087920;28;20056;-72
2023/08/30 12:08:57;;;;;;;11.00;2.22;;;20.20;99.90;;;;;;5082146;28;20463;-72
2023/08/30 12:11:22;;;;;;;10.73;2.03;;;20.00;99.90;;;;;;5077311;28;20383;-72
2023/08/30 12:13:48;;;;;;;12.77;2.30;;;19.90;99.90;;;;;;5083364;28;20046;-72
2023/08/30 12:16:18;;;;;;;10.25;2.03;;;19.70;99.90;;;;;;5087986;28;20020;-72
2023/08/30 12:18:44;;;;;;;10.75;2.22;;;19.40;99.90;;;;;;5076519;28;20507;-72
2023/08/30 12:21:09;;;;;;;12.10;2.08;;;19.20;99.90;;;;;;5075383;28;20029;-72
2023/08/30 12:23:35;;;;;;;9.85;2.50;;;19.10;99.90;;;;;;5085730;28;20438;-72
2023/08/30 12:26:05;;;;;;;7.35;1.83;;;19.00;99.90;;;;;;5077412;28;20020;-72
2023/08/30 12:28:36;;;;;;;9.90;2.10;;;19.00;99.90;;;;;;5081506;28;20027;-72
2023/08/30 12:31:06;;;;;;;9.88;1.88;;;18.90;99.90;;;;;;5091814;28;20387;-72
2023/08/30 12:33:33;;;;;;;8.23;2.00;;;18.90;99.90;;;;;;5080377;28;20035;-72